createdAt,value
2023-01-20T00:01:55.369Z,7.80
2023-01-20T00:04:42.502Z,7.97
2023-01-20T00:07:29.741Z,7.57
2023-01-20T00:10:17.880Z,9.73
2023-01-20T00:13:06.185Z,11.00
2023-01-20T00:15:53.366Z,12.50
2023-01-20T00:18:41.465Z,12.23
2023-01-20T00:21:29.056Z,12.73
2023-01-20T00:24:16.572Z,11.87
2023-01-20T00:27:03.632Z,11.90
2023-01-20T00:29:52.553Z,12.27
2023-01-20T00:32:44.735Z,12.87
2023-01-20T00:35:31.981Z,12.33
2023-01-20T00:38:19.085Z,10.73
2023-01-20T00:41:06.993Z,11.07
2023-01-20T00:43:54.484Z,10.83
2023-01-20T00:46:42.932Z,10.87
2023-01-20T00:49:30.087Z,11.27
2023-01-20T00:52:18.766Z,10.47
2023-01-20T00:55:07.047Z,9.70
2023-01-20T00:57:54.193Z,10.53
2023-01-20T01:00:41.541Z,10.27
2023-01-20T01:03:30.691Z,9.83
2023-01-20T01:06:19.063Z,10.60
2023-01-20T01:09:06.453Z,9.90
2023-01-20T01:11:53.465Z,10.57
2023-01-20T01:14:40.559Z,10.00
2023-01-20T01:17:27.669Z,9.30
2023-01-20T01:20:16.232Z,9.00
2023-01-20T01:23:03.586Z,9.27
2023-01-20T01:25:50.736Z,10.33
2023-01-20T01:28:38.297Z,10.70
2023-01-20T01:31:25.515Z,10.33
2023-01-20T01:34:12.617Z,10.93
2023-01-20T01:37:01.406Z,10.43
2023-01-20T01:39:48.570Z,11.13
2023-01-20T01:42:35.536Z,12.03
2023-01-20T01:45:28.899Z,11.50
2023-01-20T01:48:16.483Z,12.97
2023-01-20T01:51:09.229Z,11.70
2023-01-20T01:54:03.738Z,11.47
2023-01-20T01:56:52.359Z,11.60
2023-01-20T01:59:40.408Z,11.17
2023-01-20T02:02:28.019Z,11.70
2023-01-20T02:05:17.098Z,11.10
2023-01-20T02:08:05.596Z,10.73
2023-01-20T02:10:54.381Z,10.63
2023-01-20T02:13:42.178Z,10.23
2023-01-20T02:16:41.670Z,12.00
2023-01-20T02:20:25.503Z,10.27
2023-01-20T02:23:33.934Z,12.23
2023-01-20T02:26:47.218Z,10.67
2023-01-20T02:30:22.802Z,11.17
2023-01-20T02:33:15.077Z,11.80
2023-01-20T02:36:08.929Z,12.33
2023-01-20T02:39:02.092Z,12.13
2023-01-20T02:41:59.044Z,12.23
2023-01-20T02:44:54.943Z,11.87
2023-01-20T02:47:51.741Z,11.63
2023-01-20T02:51:04.377Z,11.70
2023-01-20T02:53:56.449Z,11.30
2023-01-20T02:56:44.515Z,11.37
2023-01-20T02:59:36.110Z,11.50
2023-01-20T03:02:27.538Z,10.77
2023-01-20T03:05:21.651Z,11.33
2023-01-20T03:08:14.094Z,11.50
2023-01-20T03:11:06.593Z,11.47
2023-01-20T03:14:00.838Z,12.17
2023-01-20T03:16:50.397Z,11.60
2023-01-20T03:19:37.606Z,11.77
2023-01-20T03:22:25.214Z,11.73
2023-01-20T03:25:16.348Z,11.83
2023-01-20T03:28:04.573Z,10.97
2023-01-20T03:30:52.122Z,11.80
2023-01-20T03:33:39.764Z,12.00
2023-01-20T03:36:30.743Z,11.80
2023-01-20T03:39:18.526Z,11.07
2023-01-20T03:42:13.967Z,10.77
2023-01-20T03:45:11.955Z,10.03
2023-01-20T03:48:07.908Z,9.43
2023-01-20T03:50:58.701Z,10.13
2023-01-20T03:53:50.416Z,10.97
2023-01-20T03:56:43.759Z,11.97
2023-01-20T03:59:36.250Z,11.60
2023-01-20T04:02:25.255Z,9.83
2023-01-20T04:05:13.197Z,10.40
2023-01-20T04:08:05.328Z,10.37
2023-01-20T04:10:53.760Z,10.77
2023-01-20T04:13:40.674Z,10.40
2023-01-20T04:16:29.251Z,10.30
2023-01-20T04:19:16.470Z,10.83
2023-01-20T04:22:09.355Z,11.50
2023-01-20T04:25:02.972Z,11.00
2023-01-20T04:27:50.714Z,11.30
2023-01-20T04:30:38.017Z,11.10
2023-01-20T04:33:26.546Z,10.17
2023-01-20T04:36:13.880Z,9.30
2023-01-20T04:39:00.942Z,9.60
2023-01-20T04:41:48.203Z,9.50
2023-01-20T04:44:35.638Z,10.17
2023-01-20T04:47:22.802Z,9.37
2023-01-20T04:50:14.749Z,10.10
2023-01-20T04:53:01.984Z,10.63
2023-01-20T04:55:48.995Z,11.17
2023-01-20T04:58:36.210Z,11.47
2023-01-20T05:01:23.684Z,12.00
2023-01-20T05:04:10.911Z,12.07
2023-01-20T05:06:59.302Z,11.50
2023-01-20T05:09:46.790Z,12.93
2023-01-20T05:12:33.972Z,13.30
2023-01-20T05:15:20.966Z,13.03
2023-01-20T05:18:08.103Z,13.20
2023-01-20T05:20:55.307Z,11.27
2023-01-20T05:23:43.819Z,11.23
2023-01-20T05:26:31.215Z,11.53
2023-01-20T05:29:18.417Z,10.37
2023-01-20T05:32:06.314Z,9.10
2023-01-20T05:34:53.598Z,9.37
2023-01-20T05:37:40.977Z,7.97
2023-01-20T05:40:29.375Z,7.73
2023-01-20T05:43:16.402Z,8.10
2023-01-20T05:46:04.025Z,8.27
2023-01-20T05:48:51.303Z,8.00
2023-01-20T05:51:38.532Z,9.30
2023-01-20T05:54:26.236Z,8.60
2023-01-20T05:57:18.275Z,8.90
2023-01-20T06:00:08.739Z,8.60
2023-01-20T06:02:56.340Z,8.40
2023-01-20T06:05:43.375Z,9.30
2023-01-20T06:08:30.932Z,8.97
2023-01-20T06:11:18.279Z,9.10
2023-01-20T06:14:06.847Z,8.57
2023-01-20T06:16:54.020Z,7.83
2023-01-20T06:19:41.154Z,8.10
2023-01-20T06:22:28.612Z,7.47
2023-01-20T06:25:16.505Z,8.00
2023-01-20T06:28:03.610Z,8.03
2023-01-20T06:30:52.216Z,10.17
2023-01-20T06:33:39.609Z,10.40
2023-01-20T06:36:27.016Z,9.63
2023-01-20T06:39:14.159Z,9.63
2023-01-20T06:42:02.089Z,9.23
2023-01-20T06:44:49.354Z,9.60
2023-01-20T06:47:37.994Z,7.93
2023-01-20T06:50:25.261Z,8.87
2023-01-20T06:53:12.590Z,9.73
2023-01-20T06:56:01.595Z,9.03
2023-01-20T06:58:48.947Z,9.03
2023-01-20T07:01:35.950Z,9.13
2023-01-20T07:04:24.374Z,9.10
2023-01-20T07:07:13.821Z,9.03
2023-01-20T07:10:01.199Z,8.90
2023-01-20T07:12:48.281Z,9.93
2023-01-20T07:15:35.466Z,10.77
2023-01-20T07:18:22.542Z,10.03
2023-01-20T07:21:12.541Z,9.77
2023-01-20T07:24:02.460Z,11.97
2023-01-20T07:26:49.495Z,9.93
2023-01-20T07:29:38.055Z,9.17
2023-01-20T07:32:25.095Z,9.30
2023-01-20T07:35:13.013Z,9.37
2023-01-20T07:38:01.803Z,9.40
2023-01-20T07:40:49.273Z,8.67
2023-01-20T07:43:36.662Z,9.87
2023-01-20T07:46:24.036Z,9.87
2023-01-20T07:49:12.921Z,10.53
2023-01-20T07:52:00.346Z,9.67
2023-01-20T07:54:49.058Z,8.77
2023-01-20T07:57:36.061Z,9.53
2023-01-20T08:00:24.886Z,8.77
2023-01-20T08:03:12.767Z,8.60
2023-01-20T08:06:03.644Z,8.53
2023-01-20T08:08:51.320Z,7.00
2023-01-20T08:11:39.949Z,6.90
2023-01-20T08:14:27.413Z,6.83
2023-01-20T08:17:14.779Z,7.47
2023-01-20T08:20:02.172Z,8.83
2023-01-20T08:22:49.581Z,8.87
2023-01-20T08:25:36.906Z,9.53
2023-01-20T08:28:25.500Z,9.53
2023-01-20T08:31:15.418Z,9.10
2023-01-20T08:34:02.624Z,8.43
2023-01-20T08:36:50.221Z,7.73
2023-01-20T08:39:37.391Z,8.73
2023-01-20T08:42:24.462Z,8.80
2023-01-20T08:45:13.716Z,8.50
2023-01-20T08:48:01.148Z,8.67
2023-01-20T08:50:48.197Z,8.60
2023-01-20T08:53:35.790Z,8.43
2023-01-20T08:56:23.918Z,8.50
2023-01-20T08:59:12.462Z,8.60
2023-01-20T09:02:00.920Z,11.30
2023-01-20T09:04:50.147Z,11.93
2023-01-20T09:07:37.428Z,11.80
2023-01-20T09:10:24.933Z,10.13
2023-01-20T09:13:12.221Z,10.10
2023-01-20T09:15:59.164Z,10.73
2023-01-20T09:18:47.810Z,10.10
2023-01-20T09:21:35.030Z,9.80
2023-01-20T09:24:22.599Z,10.17
2023-01-20T09:27:09.919Z,10.50
2023-01-20T09:29:56.882Z,10.87
2023-01-20T09:32:43.977Z,10.40
2023-01-20T09:35:32.332Z,9.67
2023-01-20T09:38:37.145Z,10.50
2023-01-20T09:41:47.599Z,10.50
2023-01-20T09:44:53.678Z,10.00
2023-01-20T09:47:47.988Z,9.43
2023-01-20T09:51:05.413Z,10.27
2023-01-20T09:54:00.079Z,10.20
2023-01-20T09:56:50.934Z,9.40
2023-01-20T09:59:43.444Z,9.83
2023-01-20T10:02:35.633Z,9.67
2023-01-20T10:05:32.973Z,10.10
2023-01-20T10:08:28.158Z,9.50
2023-01-20T10:11:19.833Z,9.60
2023-01-20T10:14:17.090Z,10.40
2023-01-20T10:17:13.870Z,8.77
2023-01-20T10:20:08.065Z,9.30
2023-01-20T10:23:02.598Z,11.87
2023-01-20T10:26:00.426Z,11.23
2023-01-20T10:28:53.204Z,9.67
2023-01-20T10:31:46.966Z,10.87
2023-01-20T10:34:42.925Z,10.07
2023-01-20T10:37:32.970Z,10.63
2023-01-20T10:40:35.095Z,9.97
2023-01-20T10:43:24.266Z,9.90
2023-01-20T10:46:43.599Z,9.97
2023-01-20T10:49:49.519Z,10.67
2023-01-20T10:52:55.206Z,11.03
2023-01-20T10:55:58.315Z,10.70
2023-01-20T10:58:47.713Z,11.50
2023-01-20T11:01:36.682Z,11.17
2023-01-20T11:04:24.229Z,11.13
2023-01-20T11:07:17.683Z,12.03
2023-01-20T11:10:17.062Z,10.90
2023-01-20T11:13:05.092Z,11.80
2023-01-20T11:15:57.875Z,10.23
2023-01-20T11:18:56.701Z,11.07
2023-01-20T11:21:43.947Z,10.73
2023-01-20T11:24:43.839Z,10.40
2023-01-20T11:27:36.654Z,10.80
2023-01-20T11:30:30.404Z,11.17
2023-01-20T11:33:23.404Z,10.20
2023-01-20T11:36:19.932Z,10.50
2023-01-20T11:39:25.716Z,10.30
2023-01-20T11:42:17.622Z,10.00
2023-01-20T11:45:20.908Z,10.10
2023-01-20T11:48:21.731Z,10.87
2023-01-20T11:51:22.227Z,11.10
2023-01-20T11:54:15.629Z,11.93
2023-01-20T11:57:07.653Z,11.97
2023-01-20T11:59:54.927Z,11.50
2023-01-20T12:02:42.226Z,10.77
2023-01-20T12:05:40.653Z,11.90
2023-01-20T12:08:35.402Z,12.13
2023-01-20T12:11:29.012Z,11.77
2023-01-20T12:14:25.447Z,9.97
2023-01-20T12:17:22.344Z,10.93
2023-01-20T12:20:17.819Z,10.77
2023-01-20T12:23:21.483Z,10.40
2023-01-20T12:26:10.571Z,10.20
2023-01-20T12:29:03.351Z,10.03
2023-01-20T12:31:51.017Z,10.37
2023-01-20T12:34:42.643Z,11.27
2023-01-20T12:37:40.451Z,11.30
2023-01-20T12:40:41.847Z,11.27
2023-01-20T12:43:51.087Z,10.37
2023-01-20T12:46:43.575Z,12.07
2023-01-20T12:49:53.224Z,16.67
2023-01-20T12:52:53.452Z,12.30
2023-01-20T12:55:57.178Z,9.83
2023-01-20T12:58:56.562Z,9.57
2023-01-20T13:02:00.409Z,7.77
2023-01-20T13:05:15.411Z,8.63
2023-01-20T13:08:16.659Z,7.70
2023-01-20T13:11:18.102Z,6.83
2023-01-20T13:14:15.627Z,6.63
2023-01-20T13:17:09.664Z,6.60
2023-01-20T13:20:00.813Z,6.73
2023-01-20T13:22:48.151Z,6.40
2023-01-20T13:25:36.387Z,5.93
2023-01-20T13:28:28.875Z,5.80
2023-01-20T13:31:48.936Z,5.73
2023-01-20T13:34:40.849Z,5.30
2023-01-20T13:37:32.051Z,5.37
2023-01-20T13:40:56.407Z,6.20
2023-01-20T13:43:54.237Z,7.53
2023-01-20T13:46:50.112Z,7.30
2023-01-20T13:49:54.575Z,7.80
2023-01-20T13:53:30.347Z,8.13
2023-01-20T13:56:32.893Z,7.87
2023-01-20T13:59:21.307Z,8.03
2023-01-20T14:02:18.728Z,7.10
2023-01-20T14:05:20.810Z,8.53
2023-01-20T14:08:15.259Z,10.77
2023-01-20T14:11:13.531Z,9.47
2023-01-20T14:14:05.453Z,8.73
2023-01-20T14:16:54.593Z,8.40
2023-01-20T14:19:41.697Z,7.30
2023-01-20T14:22:32.215Z,7.57
2023-01-20T14:25:26.448Z,6.83
2023-01-20T14:28:20.872Z,6.70
2023-01-20T14:31:22.139Z,6.83
2023-01-20T14:34:30.433Z,6.60
2023-01-20T14:37:29.040Z,6.37
2023-01-20T14:40:25.533Z,6.87
2023-01-20T14:43:19.573Z,6.67
2023-01-20T14:46:07.327Z,6.37
2023-01-20T14:48:56.229Z,7.03
2023-01-20T14:51:46.656Z,8.17
2023-01-20T14:54:44.572Z,8.43
2023-01-20T14:57:33.784Z,8.50
2023-01-20T15:00:27.394Z,8.57
2023-01-20T15:03:20.638Z,7.43
2023-01-20T15:06:21.161Z,6.50
2023-01-20T15:09:29.806Z,6.80
2023-01-20T15:12:36.011Z,5.30
2023-01-20T15:15:31.665Z,5.10
2023-01-20T15:18:23.122Z,5.23
2023-01-20T15:21:24.181Z,6.00
2023-01-20T15:24:14.919Z,5.67
2023-01-20T15:27:18.625Z,8.07
2023-01-20T15:30:18.821Z,8.87
2023-01-20T15:33:09.725Z,9.27
2023-01-20T15:35:59.680Z,21.20
2023-01-20T15:38:46.992Z,14.67
2023-01-20T15:41:34.035Z,8.60
2023-01-20T15:44:22.818Z,7.90
2023-01-20T15:47:21.697Z,9.33
2023-01-20T15:50:17.365Z,7.90
2023-01-20T15:53:06.403Z,9.10
2023-01-20T15:55:53.840Z,9.77
2023-01-20T15:58:41.276Z,8.63
2023-01-20T16:01:30.442Z,8.80
2023-01-20T16:04:17.485Z,12.10
2023-01-20T16:07:04.601Z,12.30
2023-01-20T16:09:52.035Z,11.73
2023-01-20T16:12:39.044Z,10.60
2023-01-20T16:15:26.196Z,9.13
2023-01-20T16:18:17.520Z,7.70
2023-01-20T16:21:04.904Z,7.37
2023-01-20T16:23:52.387Z,6.53
2023-01-20T16:26:39.776Z,5.47
2023-01-20T16:29:27.296Z,6.53
2023-01-20T16:32:17.131Z,7.03
2023-01-20T16:35:07.870Z,7.83
2023-01-20T16:37:55.019Z,12.30
2023-01-20T16:40:48.377Z,18.70
2023-01-20T16:43:36.006Z,12.67
2023-01-20T16:46:25.843Z,11.97
2023-01-20T16:49:13.281Z,12.20
2023-01-20T16:52:02.006Z,9.77
2023-01-20T16:54:49.294Z,8.13
2023-01-20T16:57:36.562Z,7.53
2023-01-20T17:00:24.253Z,7.53
2023-01-20T17:03:11.371Z,7.67
2023-01-20T17:05:59.910Z,7.97
2023-01-20T17:08:51.161Z,8.57
2023-01-20T17:11:41.024Z,7.90
2023-01-20T17:14:28.437Z,7.40
2023-01-20T17:17:15.632Z,7.30
2023-01-20T17:20:02.660Z,7.97
2023-01-20T17:22:52.851Z,7.57
2023-01-20T17:25:41.849Z,8.50
2023-01-20T17:28:29.447Z,9.20
2023-01-20T17:31:16.638Z,8.93
2023-01-20T17:34:04.542Z,14.00
2023-01-20T17:36:51.910Z,11.97
2023-01-20T17:39:39.013Z,14.03
2023-01-20T17:42:27.421Z,12.13
2023-01-20T17:45:14.590Z,9.07
2023-01-20T17:48:04.282Z,7.67
2023-01-20T17:50:51.925Z,7.63
2023-01-20T17:53:38.915Z,7.93
2023-01-20T17:56:27.203Z,8.33
2023-01-20T17:59:15.838Z,7.83
2023-01-20T18:02:03.172Z,8.30
2023-01-20T18:04:50.186Z,7.53
2023-01-20T18:07:37.864Z,8.97
2023-01-20T18:10:25.012Z,9.20
2023-01-20T18:13:11.894Z,8.47
2023-01-20T18:16:05.508Z,11.07
2023-01-20T18:18:53.624Z,10.07
2023-01-20T18:21:42.635Z,8.37
2023-01-20T18:24:30.165Z,9.10
2023-01-20T18:27:18.823Z,13.90
2023-01-20T18:30:10.493Z,12.90
2023-01-20T18:32:59.426Z,8.83
2023-01-20T18:35:46.680Z,7.23
2023-01-20T18:38:33.863Z,7.40
2023-01-20T18:41:22.189Z,8.07
2023-01-20T18:44:09.768Z,7.50
2023-01-20T18:46:57.099Z,6.43
2023-01-20T18:49:45.950Z,6.43
2023-01-20T18:52:32.889Z,7.23
2023-01-20T18:55:19.949Z,9.40
2023-01-20T18:58:08.538Z,8.00
2023-01-20T19:00:55.800Z,7.67
2023-01-20T19:03:43.085Z,6.27
2023-01-20T19:06:34.436Z,5.30
2023-01-20T19:09:21.533Z,4.87
2023-01-20T19:12:09.041Z,5.33
2023-01-20T19:14:56.213Z,6.80
2023-01-20T19:17:43.319Z,5.53
2023-01-20T19:20:30.472Z,4.87
2023-01-20T19:23:19.141Z,5.33
2023-01-20T19:26:08.522Z,4.00
2023-01-20T19:29:00.049Z,3.70
2023-01-20T19:31:47.414Z,4.10
2023-01-20T19:34:34.657Z,3.67
2023-01-20T19:37:21.793Z,3.60
2023-01-20T19:40:12.363Z,3.40
2023-01-20T19:43:00.800Z,3.40
2023-01-20T19:45:47.982Z,3.50
2023-01-20T19:48:35.723Z,3.40
2023-01-20T19:51:23.390Z,3.70
2023-01-20T19:54:14.415Z,3.87
2023-01-20T19:57:03.165Z,3.60
2023-01-20T19:59:51.954Z,3.50
2023-01-20T20:02:40.956Z,3.00
2023-01-20T20:05:28.134Z,3.40
2023-01-20T20:08:15.149Z,3.50
2023-01-20T20:11:02.351Z,3.57
2023-01-20T20:13:54.758Z,3.50
2023-01-20T20:16:42.633Z,3.50
2023-01-20T20:19:29.626Z,3.97
2023-01-20T20:22:16.850Z,3.50
2023-01-20T20:25:05.769Z,3.43
2023-01-20T20:27:52.907Z,3.60
2023-01-20T20:30:42.234Z,3.87
2023-01-20T20:33:29.255Z,3.60
2023-01-20T20:36:17.005Z,3.60
2023-01-20T20:39:05.384Z,3.97
2023-01-20T20:41:52.329Z,4.33
2023-01-20T20:44:40.276Z,3.73
2023-01-20T20:47:29.145Z,3.87
2023-01-20T20:50:17.261Z,3.93
2023-01-20T20:53:04.413Z,4.37
2023-01-20T20:55:55.308Z,3.87
2023-01-20T20:59:00.109Z,4.03
2023-01-20T21:01:48.429Z,4.20
2023-01-20T21:04:36.746Z,4.33
2023-01-20T21:07:24.194Z,3.73
2023-01-20T21:10:15.631Z,4.27
2023-01-20T21:13:06.957Z,4.47
2023-01-20T21:15:59.603Z,3.97
2023-01-20T21:18:47.263Z,4.40
2023-01-20T21:21:35.995Z,4.07
2023-01-20T21:24:26.126Z,4.10
2023-01-20T21:27:13.463Z,3.87
2023-01-20T21:30:00.677Z,4.07
2023-01-20T21:32:47.774Z,4.00
2023-01-20T21:35:38.812Z,4.33
2023-01-20T21:38:27.676Z,4.57
2023-01-20T21:41:16.442Z,4.20
2023-01-20T21:44:21.041Z,3.80
2023-01-20T21:47:08.864Z,3.07
2023-01-20T21:50:13.659Z,3.67
2023-01-20T21:53:00.528Z,3.27
2023-01-20T21:55:48.833Z,3.13
2023-01-20T21:58:36.247Z,3.40
2023-01-20T22:01:23.663Z,3.20
2023-01-20T22:04:10.806Z,3.10
2023-01-20T22:06:58.232Z,3.53
2023-01-20T22:09:45.225Z,3.37
2023-01-20T22:12:34.738Z,3.50
2023-01-20T22:15:22.049Z,2.97
2023-01-20T22:18:09.097Z,3.30
2023-01-20T22:20:56.250Z,2.73
2023-01-20T22:23:43.382Z,2.97
2023-01-20T22:26:30.480Z,2.53
2023-01-20T22:29:19.466Z,2.60
2023-01-20T22:32:06.869Z,2.30
2023-01-20T22:34:54.716Z,2.37
2023-01-20T22:37:41.826Z,2.17
2023-01-20T22:40:28.950Z,1.90
2023-01-20T22:43:16.222Z,1.90
2023-01-20T22:46:05.631Z,2.00
2023-01-20T22:48:52.841Z,2.07
2023-01-20T22:51:40.314Z,2.20
2023-01-20T22:54:27.511Z,1.80
2023-01-20T22:57:14.556Z,1.80
2023-01-20T23:00:01.776Z,1.60
2023-01-20T23:02:50.422Z,2.00
2023-01-20T23:05:39.575Z,1.70
2023-01-20T23:08:30.082Z,1.73
2023-01-20T23:11:20.260Z,1.93
2023-01-20T23:14:10.574Z,1.93
2023-01-20T23:16:58.248Z,1.80
2023-01-20T23:19:46.642Z,2.10
2023-01-20T23:22:34.009Z,1.60
2023-01-20T23:25:21.357Z,1.60
2023-01-20T23:28:08.536Z,1.60
2023-01-20T23:31:02.540Z,1.80
2023-01-20T23:33:50.529Z,1.70
2023-01-20T23:36:39.203Z,2.00
2023-01-20T23:39:26.714Z,2.43
2023-01-20T23:42:13.819Z,2.77
2023-01-20T23:45:01.030Z,3.17
2023-01-20T23:47:47.959Z,2.93
2023-01-20T23:50:35.995Z,2.90
2023-01-20T23:53:24.531Z,2.73
2023-01-20T23:56:14.482Z,2.57
2023-01-20T23:59:01.779Z,2.53
